Latest Weather Observations for Armidale Airport

IDN60801

Issued at 2:35 pm EST Monday 21 April 2014 (issued every 30 minutes, with the page automatically refreshed every 10 minutes)

About weather observations | Map of weather stations | Latest weather observations for NSW | Other Formats
Station Details ID: 056238 Name: ARMIDALE AIRPORT AWS Lat: -30.53 Lon: 151.62 Height: 1079.0 m
Data from the previous 72 hours. | See also: Recent months for locations in New South Wales
Date/Time
EST
Temp
°C
App
Temp
°C
Dew
Point
Rel
Hum
%
Delta-T
°C
Wind Press
QNH
hPa
Press
MSL
hPa
Rain
since 9 am
mm
Dir
 
Spd
km/h
Gust
km/h
Spd
kts
Gust
kts
21/02:30pm 20.0 16.2 6.0 40 7.3 W 15 28 8 15 1021.1 - 0.0
21/02:00pm 20.2 14.8 6.2 40 7.4 W 24 35 13 19 1021.2 - 0.0
21/01:30pm 20.0 14.4 5.3 38 7.6 WNW 24 35 13 19 1021.5 - 0.0
21/01:00pm 19.8 13.5 5.8 40 7.3 WNW 28 41 15 22 1021.7 - 0.0
21/12:30pm 20.0 14.3 6.7 42 7.1 WNW 26 39 14 21 1022.0 - 0.0
21/12:09pm 19.4 13.2 6.2 42 6.9 WNW 28 46 15 25 1022.4 - 0.0
21/12:00pm 19.3 12.7 6.1 42 6.9 WNW 30 41 16 22 1022.5 1019.3 0.0
21/11:30am 19.4 13.3 6.5 43 6.8 W 28 35 15 19 1022.7 - 0.0
21/11:00am 19.0 13.6 6.5 44 6.6 W 24 33 13 18 1023.2 - 0.0
21/10:30am 18.2 12.5 6.7 47 6.1 WNW 26 33 14 18 1023.4 - 0.0
21/10:00am 17.5 12.0 5.8 46 6.0 W 24 32 13 17 1023.5 - 0.0
21/09:30am 16.5 10.9 5.5 48 5.6 WNW 24 30 13 16 1023.5 - 0.0
21/09:00am 16.1 11.5 6.3 52 5.0 WNW 20 24 11 13 1023.4 1020.2 0.0
21/08:30am 15.0 11.6 7.5 61 3.9 NW 15 19 8 10 1023.2 - 0.0
21/08:00am 13.0 9.8 7.0 67 3.1 NW 13 17 7 9 1022.9 - 0.0
21/07:30am 10.9 8.3 6.3 73 2.3 WNW 9 11 5 6 1022.7 - 0.0
21/07:00am 8.3 5.6 5.6 83 1.3 WNW 9 11 5 6 1022.4 - 0.0
21/06:30am 7.6 4.4 4.9 83 1.3 WNW 11 13 6 7 1022.0 - 0.0
21/06:00am 7.3 4.4 4.9 85 1.1 WNW 9 11 5 6 1021.7 1018.5 0.0
21/05:30am 7.3 4.5 5.1 86 1.0 WNW 9 11 5 6 1021.4 - 0.0
21/05:00am 7.2 4.9 5.5 89 0.8 WNW 7 7 4 4 1021.1 - 0.0
21/04:30am 6.9 4.4 4.9 87 0.9 WNW 7 9 4 5 1020.8 - 0.0
21/04:23am 7.3 4.9 5.1 86 1.0 WNW 7 9 4 5 1020.7 - 0.0
21/04:08am 7.3 4.9 5.1 86 1.0 W 7 9 4 5 1020.7 - 0.0
21/04:00am 7.6 5.2 5.4 86 1.0 WNW 7 9 4 5 1020.7 - 0.0
21/03:30am 7.6 5.3 5.6 87 1.0 WNW 7 9 4 5 1020.6 - 0.0
21/03:00am 8.0 5.7 5.6 85 1.1 WNW 7 9 4 5 1020.7 1017.5 0.0
21/02:30am 8.0 5.7 5.8 86 1.1 NW 7 7 4 4 1020.6 - 0.0
21/02:00am 7.6 5.2 5.2 85 1.1 NW 7 7 4 4 1020.7 - 0.0
21/01:30am 8.2 5.9 5.7 84 1.2 NW 7 9 4 5 1020.7 - 0.0
21/01:00am 8.5 6.2 5.6 82 1.4 WNW 7 11 4 6 1021.0 - 0.0
21/12:30am 8.4 5.8 6.2 86 1.1 WNW 9 9 5 5 1020.9 - 0.0
21/12:00am 7.6 4.9 5.6 87 1.0 WNW 9 11 5 6 1020.9 1017.7 0.0
 
Date/Time
EST
Temp
°C
App
Temp
°C
Dew
Point
Rel
Hum
%
Delta-T
°C
Wind Press
QNH
hPa
Press
MSL
hPa
Rain
since 9 am
mm
Dir
 
Spd
km/h
Gust
km/h
Spd
kts
Gust
kts
20/11:30pm 7.5 5.1 5.3 86 1.0 WNW 7 9 4 5 1020.8 - 0.0
20/11:00pm 8.3 5.7 5.9 85 1.2 WNW 9 11 5 6 1021.0 - 0.0
20/10:30pm 8.5 5.8 5.6 82 1.4 WNW 9 9 5 5 1021.2 - 0.0
20/10:00pm 9.9 7.4 6.4 79 1.7 WNW 9 9 5 5 1021.2 - 0.0
20/09:30pm 10.6 8.1 6.7 77 2.0 WNW 9 9 5 5 1021.2 - 0.0
20/09:00pm 9.7 7.1 6.2 79 1.7 W 9 9 5 5 1021.0 1017.8 0.0
20/08:30pm 11.2 8.6 6.1 71 2.5 W 9 11 5 6 1020.8 - 0.0
20/08:00pm 11.9 9.7 6.4 69 2.8 W 7 9 4 5 1020.6 - 0.0
20/07:30pm 12.0 9.8 6.3 68 2.9 WNW 7 9 4 5 1020.4 - 0.0
20/07:00pm 12.3 8.9 6.1 66 3.1 WNW 13 19 7 10 1020.2 - 0.0
20/06:30pm 13.5 10.5 6.1 61 3.7 NNW 11 13 6 7 1019.8 - 0.0
20/06:00pm 13.4 10.7 5.6 59 3.9 NNW 9 9 5 5 1019.7 1016.5 0.0
20/05:30pm 15.0 11.6 5.8 54 4.7 WNW 13 15 7 8 1019.4 - 0.0
20/05:00pm 17.4 14.1 6.6 49 5.7 WNW 13 20 7 11 1019.1 - 0.0
20/04:30pm 18.6 14.5 6.1 44 6.5 WNW 17 22 9 12 1018.8 - 0.0
20/04:00pm 19.2 14.6 6.3 43 6.8 WNW 20 26 11 14 1018.8 - 0.0
20/03:30pm 19.6 15.1 6.0 41 7.1 W 19 30 10 16 1018.6 - 0.0
20/03:00pm 19.7 14.7 6.4 42 7.0 WNW 22 30 12 16 1018.8 1015.6 0.0
20/02:30pm 19.8 14.9 6.9 43 6.9 W 22 35 12 19 1018.8 - 0.0
20/02:00pm 19.5 14.9 6.6 43 6.8 W 20 30 11 16 1018.7 - 0.0
20/01:30pm 18.9 13.8 6.1 43 6.7 WNW 22 35 12 19 1018.8 - 0.0
20/01:00pm 19.1 14.3 7.2 46 6.4 W 22 35 12 19 1019.0 - 0.0
20/12:30pm 18.8 14.0 7.3 47 6.2 WNW 22 32 12 17 1019.2 - 0.0
20/12:00pm 18.6 12.7 7.4 48 6.0 WNW 28 35 15 19 1019.9 1016.7 0.0
20/11:30am 17.8 11.7 6.7 48 5.8 W 28 37 15 20 1020.1 - 0.0
20/11:00am 18.3 12.8 7.4 49 5.8 W 26 35 14 19 1020.5 - 0.0
20/10:30am 17.1 10.0 5.7 47 5.9 WNW 32 46 17 25 1020.8 - 0.0
20/10:00am 17.4 11.8 7.2 51 5.4 W 26 37 14 20 1020.9 - 0.0
20/09:30am 16.7 11.1 7.1 53 5.1 WNW 26 35 14 19 1020.8 - 0.0
20/09:00am 16.3 11.4 7.0 54 4.9 WNW 22 33 12 18 1020.7 1017.5 0.0
20/08:30am 14.8 11.7 7.1 60 4.0 WNW 13 17 7 9 1020.5 - 0.0
20/08:00am 12.6 10.7 7.7 72 2.5 N 7 9 4 5 1020.4 - 0.0
20/07:30am 10.7 8.4 7.4 80 1.7 NNE 9 11 5 6 1020.1 - 0.0
20/07:00am 7.8 5.6 6.1 89 0.8 ENE 7 9 4 5 1019.8 - 0.0
20/06:30am 5.8 2.9 4.6 92 0.6 NE 9 9 5 5 1019.5 - 0.0
20/06:00am 5.9 3.0 4.7 92 0.6 ENE 9 11 5 6 1019.4 1016.1 0.0
20/05:30am 5.0 1.6 3.8 92 0.5 ENE 11 11 6 6 1019.1 - 0.0
20/05:00am 6.0 3.1 4.8 92 0.6 ENE 9 11 5 6 1018.9 - 0.0
20/04:30am 6.0 3.7 5.0 93 0.5 E 6 7 3 4 1018.8 - 0.0
20/04:00am 5.7 2.8 4.7 93 0.5 NE 9 11 5 6 1018.6 - 0.0
20/03:30am 5.4 1.9 3.7 89 0.8 ENE 11 13 6 7 1018.5 - 0.0
20/03:00am 7.4 6.2 4.5 82 1.3 CALM 0 0 0 0 1018.7 1015.5 0.0
20/02:30am 8.5 7.5 5.8 83 1.3 CALM 0 0 0 0 1018.8 - 0.0
20/02:00am 7.4 5.1 4.9 84 1.2 N 6 7 3 4 1018.9 - 0.0
20/01:30am 8.8 6.0 5.0 77 1.8 WNW 9 11 5 6 1019.1 - 0.0
20/01:00am 8.5 5.6 4.7 77 1.8 WNW 9 11 5 6 1019.1 - 0.0
20/12:30am 9.2 6.5 5.4 77 1.8 NW 9 11 5 6 1019.1 - 0.0
20/12:00am 8.3 5.9 5.1 80 1.5 WNW 7 9 4 5 1019.1 1015.9 0.0
 
Date/Time
EST
Temp
°C
App
Temp
°C
Dew
Point
Rel
Hum
%
Delta-T
°C
Wind Press
QNH
hPa
Press
MSL
hPa
Rain
since 9 am
mm
Dir
 
Spd
km/h
Gust
km/h
Spd
kts
Gust
kts
19/11:30pm 9.6 7.3 5.8 77 1.9 N 7 9 4 5 1019.2 - 0.0
19/11:00pm 9.4 7.4 6.1 80 1.6 NNE 6 7 3 4 1019.1 - 0.0
19/10:30pm 8.9 6.8 6.7 86 1.1 ENE 7 9 4 5 1019.2 - 0.0
19/10:00pm 7.9 5.2 5.4 84 1.2 NE 9 9 5 5 1019.5 - 0.0
19/09:30pm 9.1 6.5 6.2 82 1.4 NE 9 9 5 5 1019.6 - 0.0
19/09:00pm 9.6 7.1 6.5 81 1.5 E 9 9 5 5 1019.5 1016.3 0.0
19/08:30pm 11.1 9.7 5.6 69 2.7 N 2 6 1 3 1019.4 - 0.0
19/08:00pm 10.7 9.0 5.9 72 2.4 NNW 4 6 2 3 1019.2 - 0.0
19/07:30pm 11.4 9.4 6.1 70 2.6 WNW 6 6 3 3 1019.0 - 0.0
19/07:00pm 11.0 10.1 6.0 71 2.5 CALM 0 0 0 0 1018.9 - 0.0
19/06:30pm 11.1 10.1 5.8 70 2.6 CALM 0 0 0 0 1018.4 - 0.0
19/06:00pm 11.3 9.5 5.4 67 2.9 W 4 6 2 3 1018.1 1014.9 0.0
19/05:30pm 13.0 10.4 6.1 63 3.5 W 9 13 5 7 1017.9 - 0.0
19/05:00pm 15.0 11.7 6.6 57 4.3 W 13 17 7 9 1017.7 - 0.0
19/04:30pm 15.6 12.7 6.3 54 4.8 WSW 11 15 6 8 1017.6 - 0.0
19/04:00pm 15.2 10.5 6.0 54 4.7 WSW 20 26 11 14 1017.4 - 0.0
19/03:30pm 15.9 11.9 6.6 54 4.8 WSW 17 20 9 11 1017.2 - 0.0
19/03:00pm 15.9 11.3 5.8 51 5.2 WSW 19 26 10 14 1017.2 1014.0 0.0
19/02:30pm 15.8 10.9 5.1 49 5.4 WSW 20 28 11 15 1017.4 - 0.0
19/02:00pm 17.3 11.8 5.9 47 5.9 WSW 24 37 13 20 1017.5 - 0.0
19/01:30pm 16.7 11.0 6.5 51 5.3 WSW 26 33 14 18 1017.8 - 0.0
19/01:00pm 16.0 10.4 5.6 50 5.3 WSW 24 35 13 19 1018.0 - 0.0
19/12:30pm 15.3 9.7 5.5 52 5.0 WSW 24 32 13 17 1018.6 - 0.0
19/12:00pm 15.6 11.0 6.3 54 4.8 WSW 20 28 11 15 1018.9 1015.7 0.0
19/11:30am 16.0 11.1 7.0 55 4.7 W 22 30 12 16 1019.4 - 0.0
19/11:00am 15.1 9.9 5.3 52 4.9 W 22 30 12 16 1019.7 - 0.0
19/10:30am 15.2 10.1 6.0 54 4.7 W 22 32 12 17 1019.8 - 0.0
19/10:00am 15.4 9.8 5.3 51 5.1 W 24 35 13 19 1019.9 - 0.0
19/09:30am 15.2 10.4 5.7 53 4.8 WSW 20 28 11 15 1019.9 - 0.0
19/09:00am 14.5 10.3 5.8 56 4.4 WSW 17 24 9 13 1020.0 1016.8 0.0
19/08:30am 13.6 10.5 7.2 65 3.3 W 13 19 7 10 1019.9 - 0.0
19/08:00am 12.3 9.9 6.8 69 2.8 WNW 9 11 5 6 1019.7 - 0.0
19/07:30am 10.3 8.4 6.5 77 1.9 WNW 6 7 3 4 1019.6 - 0.0
19/07:00am 8.2 5.9 5.8 85 1.2 WNW 7 11 4 6 1019.2 - 0.0
19/06:30am 6.6 4.5 5.6 93 0.5 WNW 6 7 3 4 1019.0 - 0.0
19/06:00am 6.8 4.6 5.1 89 0.8 WNW 6 7 3 4 1018.7 1015.5 0.0
19/05:30am 6.7 4.3 5.3 91 0.7 NW 7 7 4 4 1018.6 - 0.0
19/05:00am 6.5 4.0 4.7 88 0.8 WNW 7 9 4 5 1018.5 - 0.0
19/04:30am 7.5 5.4 6.0 90 0.7 W 6 7 3 4 1018.4 - 0.0
19/04:00am 7.1 4.8 5.7 91 0.7 NW 7 9 4 5 1018.1 - 0.0
19/03:30am 6.7 4.4 5.5 92 0.6 NW 7 9 4 5 1018.1 - 0.0
19/03:00am 6.6 4.2 5.1 90 0.7 NW 7 9 4 5 1018.2 1015.0 0.0
19/02:30am 6.3 4.0 4.8 90 0.7 WNW 6 7 3 4 1018.5 - 0.0
19/02:00am 6.4 3.8 4.4 87 0.9 WNW 7 9 4 5 1018.7 - 0.0
19/01:30am 7.0 4.4 4.3 83 1.2 W 7 9 4 5 1019.0 - 0.0
19/01:00am 6.7 3.8 4.4 85 1.1 W 9 11 5 6 1019.1 - 0.0
19/12:30am 5.8 2.6 2.8 81 1.3 WNW 9 11 5 6 1019.2 - 0.0
19/12:00am 6.1 3.0 3.4 83 1.2 WNW 9 11 5 6 1019.4 1016.1 0.0
 
Date/Time
EST
Temp
°C
App
Temp
°C
Dew
Point
Rel
Hum
%
Delta-T
°C
Wind Press
QNH
hPa
Press
MSL
hPa
Rain
since 9 am
mm
Dir
 
Spd
km/h
Gust
km/h
Spd
kts
Gust
kts
18/11:30pm 6.8 3.3 3.6 80 1.5 W 11 13 6 7 1019.4 - 0.0
18/11:00pm 7.5 4.4 3.6 76 1.8 W 9 11 5 6 1019.4 - 0.0
18/10:30pm 9.0 5.9 3.8 70 2.4 W 9 11 5 6 1019.1 - 0.0
18/10:00pm 9.9 7.2 3.9 66 2.8 WNW 7 9 4 5 1019.1 - 0.0
18/09:30pm 10.4 7.7 3.7 63 3.1 WNW 7 9 4 5 1019.1 - 0.0
18/09:00pm 9.5 7.0 3.5 66 2.8 NW 6 7 3 4 1018.8 1015.6 0.0
18/08:30pm 9.1 6.2 2.7 64 2.9 NW 7 11 4 6 1018.8 - 0.0
18/08:00pm 9.3 6.3 1.9 60 3.3 WNW 7 9 4 5 1018.8 - 0.0
18/07:30pm 10.5 7.5 2.1 56 3.8 WNW 7 9 4 5 1018.8 - 0.0
18/07:00pm 10.6 6.8 1.9 55 3.9 W 11 13 6 7 1018.6 - 0.0
18/06:30pm 11.2 7.0 1.5 51 4.4 W 13 15 7 8 1018.5 - 0.0
18/06:00pm 12.1 7.3 0.5 45 5.1 W 15 19 8 10 1018.2 1015.0 0.0
18/05:30pm 14.1 8.6 0.4 39 6.2 WSW 19 22 10 12 1018.0 - 0.0
18/05:00pm 15.8 10.2 1.2 37 6.8 W 20 26 11 14 1017.8 - 0.0
18/04:30pm 16.9 11.7 3.6 41 6.5 WSW 20 26 11 14 1017.5 - 0.0
18/04:00pm 17.4 11.5 1.4 34 7.6 WSW 22 28 12 15 1017.1 - 0.0
18/03:30pm 17.7 11.4 1.7 34 7.6 W 24 32 13 17 1017.1 - 0.0
18/03:00pm 17.9 12.0 3.8 39 7.0 W 24 32 13 17 1017.1 1013.9 0.0

Other Formats:

Comma delimited format used in spreadsheet applications
http://www.bom.gov.au/fwo/IDN60801/IDN60801.95773.axf

JavaScript Object Notation format (JSON) in row-major order
http://www.bom.gov.au/fwo/IDN60801/IDN60801.95773.json